CYSK

Sanikiluaq Airport

Sanikiluaq, Canada
METAR CYSK 201600Z 24015KT 15SM FEW030 FEW210 08/05 A3013 RMK SC1CS1 SLP205
Observed Flight Rules
Aug-20 @ 16:00 UTC (23 minutes ago) Visual Flight Rules
Wind Visibility Clouds
240° at 15 knots 15 miles
  • Few at 3,000' AGL
  • Few at 21,000' AGL
Temperatures Readings
Current 8°C / 46°F
Dewpoint 5°C / 41°F
Humidity 82%
Altimeter 30.13" Hg
Pressure 1020.5 hPa
Elevation 26
METAR CYSK 201600Z 24015KT 15SM FEW030 FEW210 08/05 A3013 RMK SC1CS1 SLP205
Observed Flight Rules
Aug-20 @ 16:00 UTC
(23 minutes ago)
VFR
Wind Visibility
240° at 15 knots 15 miles
Clouds
  • Few at 3,000' AGL
  • Few at 21,000' AGL
Temperature Dewpoint
8°C / 46°F 5°C / 41°F
Humidity Altimeter Pressure
82% 30.13" Hg 1020.5 hPa